createdAt,value
2018-01-14T00:01:53.973Z,20.53
2018-01-14T00:03:54.950Z,15.37
2018-01-14T00:05:55.997Z,19.40
2018-01-14T00:07:57.007Z,19.53
2018-01-14T00:09:58.085Z,16.93
2018-01-14T00:11:59.117Z,19.40
2018-01-14T00:14:01.059Z,19.87
2018-01-14T00:16:02.113Z,20.80
2018-01-14T00:18:06.226Z,19.33
2018-01-14T00:20:07.304Z,17.60
2018-01-14T00:22:08.408Z,19.33
2018-01-14T00:24:09.371Z,19.00
2018-01-14T00:26:11.513Z,18.20
2018-01-14T00:28:12.648Z,19.27
2018-01-14T00:30:14.664Z,19.23
2018-01-14T00:32:15.654Z,19.00
2018-01-14T00:34:16.720Z,20.00
2018-01-14T00:36:18.500Z,19.57
2018-01-14T00:38:19.505Z,19.57
2018-01-14T00:40:20.749Z,19.00
2018-01-14T00:42:21.804Z,19.67
2018-01-14T00:44:22.850Z,20.77
2018-01-14T00:46:24.343Z,18.97
2018-01-14T00:48:25.384Z,20.77
2018-01-14T00:50:26.780Z,18.80
2018-01-14T00:52:27.880Z,21.20
2018-01-14T00:54:28.895Z,19.40
2018-01-14T00:56:30.052Z,18.30
2018-01-14T00:58:31.161Z,18.40
2018-01-14T01:00:32.355Z,16.93
2018-01-14T01:02:34.415Z,15.90
2018-01-14T01:04:35.709Z,16.37
2018-01-14T01:06:37.371Z,18.20
2018-01-14T01:08:38.474Z,17.77
2018-01-14T01:10:39.507Z,17.13
2018-01-14T01:12:40.558Z,15.83
2018-01-14T01:14:41.941Z,18.00
2018-01-14T01:16:42.949Z,16.90
2018-01-14T01:18:45.359Z,18.30
2018-01-14T01:20:46.999Z,18.57
2018-01-14T01:22:50.220Z,16.40
2018-01-14T01:24:51.338Z,17.93
2018-01-14T01:26:52.419Z,17.20
2018-01-14T01:28:53.439Z,18.53
2018-01-14T01:30:54.498Z,17.90
2018-01-14T01:33:01.821Z,17.23
2018-01-14T01:35:03.572Z,15.87
2018-01-14T01:37:04.612Z,16.73
2018-01-14T01:39:06.145Z,17.17
2018-01-14T01:41:07.183Z,15.30
2018-01-14T01:43:08.336Z,17.27
2018-01-14T01:45:09.351Z,16.00
2018-01-14T01:47:10.419Z,14.97
2018-01-14T01:49:11.691Z,13.77
2018-01-14T01:51:12.822Z,16.90
2018-01-14T01:53:13.937Z,16.47
2018-01-14T01:55:15.168Z,17.00
2018-01-14T01:57:16.183Z,15.30
2018-01-14T01:59:17.395Z,16.10
2018-01-14T02:01:18.555Z,16.67
2018-01-14T02:03:19.662Z,16.20
2018-01-14T02:05:20.919Z,12.67
2018-01-14T02:07:22.210Z,16.10
2018-01-14T02:09:23.407Z,16.00
2018-01-14T02:11:24.499Z,14.77
2018-01-14T02:13:26.517Z,18.20
2018-01-14T02:15:27.483Z,18.00
2018-01-14T02:17:28.568Z,8.43
2018-01-14T02:19:31.109Z,16.00
2018-01-14T02:21:32.203Z,17.37
2018-01-14T02:23:33.306Z,18.43
2018-01-14T02:25:34.395Z,18.50
2018-01-14T02:27:35.525Z,17.93
2018-01-14T02:29:37.423Z,17.83
2018-01-14T02:31:39.380Z,19.00
2018-01-14T02:33:40.342Z,17.30
2018-01-14T02:35:41.569Z,16.85
2018-01-14T02:37:43.113Z,17.20
2018-01-14T02:39:44.111Z,20.03
2018-01-14T02:41:45.328Z,17.00
2018-01-14T02:43:46.582Z,14.30
2018-01-14T02:45:47.657Z,16.07
2018-01-14T02:47:48.742Z,17.08
2018-01-14T02:49:50.791Z,12.98
2018-01-14T02:51:51.973Z,16.58
2018-01-14T02:53:53.033Z,17.20
2018-01-14T02:55:54.080Z,17.10
2018-01-14T02:57:55.116Z,15.60
2018-01-14T02:59:56.224Z,16.40
2018-01-14T03:01:57.256Z,18.63
2018-01-14T03:03:58.405Z,16.17
2018-01-14T03:05:59.347Z,15.88
2018-01-14T03:08:01.474Z,17.03
2018-01-14T03:10:02.596Z,16.43
2018-01-14T03:12:04.333Z,16.48
2018-01-14T03:14:05.844Z,17.20
2018-01-14T03:16:08.400Z,16.43
2018-01-14T03:18:11.229Z,17.15
2018-01-14T03:20:13.072Z,16.00
2018-01-14T03:22:14.301Z,16.15
2018-01-14T03:24:15.371Z,16.40
2018-01-14T03:26:16.431Z,17.20
2018-01-14T03:28:17.867Z,16.15
2018-01-14T03:30:18.878Z,16.30
2018-01-14T03:32:19.980Z,15.98
2018-01-14T03:34:21.026Z,16.87
2018-01-14T03:36:23.412Z,15.63
2018-01-14T03:38:24.483Z,17.33
2018-01-14T03:40:25.478Z,13.95
2018-01-14T03:42:26.767Z,17.50
2018-01-14T03:44:27.855Z,15.40
2018-01-14T03:46:28.928Z,12.20
2018-01-14T03:48:30.049Z,17.23
2018-01-14T03:50:32.317Z,16.07
2018-01-14T03:52:33.358Z,16.53
2018-01-14T03:54:34.565Z,15.13
2018-01-14T03:56:35.604Z,14.85
2018-01-14T03:58:36.703Z,14.13
2018-01-14T04:00:39.611Z,10.47
2018-01-14T04:02:40.856Z,12.90
2018-01-14T04:04:42.240Z,13.53
2018-01-14T04:06:43.568Z,15.83
2018-01-14T04:08:44.724Z,14.10
2018-01-14T04:10:46.049Z,14.60
2018-01-14T04:12:47.109Z,16.13
2018-01-14T04:14:48.232Z,13.95
2018-01-14T04:16:49.304Z,16.60
2018-01-14T04:18:50.323Z,15.00
2018-01-14T04:20:51.451Z,16.73
2018-01-14T04:22:52.541Z,17.37
2018-01-14T04:24:54.384Z,15.65
2018-01-14T04:26:55.434Z,17.95
2018-01-14T04:28:56.606Z,18.77
2018-01-14T04:30:57.795Z,17.03
2018-01-14T04:32:58.832Z,17.42
2018-01-14T04:34:59.940Z,17.47
2018-01-14T04:37:01.013Z,16.27
2018-01-14T04:39:02.154Z,12.98
2018-01-14T04:41:03.175Z,13.57
2018-01-14T04:43:04.379Z,14.43
2018-01-14T04:45:05.662Z,15.10
2018-01-14T04:47:06.745Z,14.10
2018-01-14T04:49:07.882Z,13.95
2018-01-14T04:51:08.972Z,11.60
2018-01-14T04:53:10.288Z,7.65
2018-01-14T04:55:13.197Z,11.73
2018-01-14T04:57:14.237Z,9.80
2018-01-14T04:59:15.364Z,13.00
2018-01-14T05:01:16.457Z,14.27
2018-01-14T05:03:17.470Z,14.05
2018-01-14T05:05:18.564Z,13.82
2018-01-14T05:07:19.548Z,10.80
2018-01-14T05:09:21.832Z,11.50
2018-01-14T05:11:22.964Z,12.20
2018-01-14T05:13:23.996Z,11.45
2018-01-14T05:15:25.130Z,13.07
2018-01-14T05:17:27.319Z,12.07
2018-01-14T05:19:28.369Z,13.20
2018-01-14T05:21:29.467Z,12.23
2018-01-14T05:23:30.583Z,12.67
2018-01-14T05:25:35.005Z,11.20
2018-01-14T05:27:36.015Z,12.88
2018-01-14T05:29:37.044Z,13.53
2018-01-14T05:31:38.789Z,13.43
2018-01-14T05:33:40.008Z,12.02
2018-01-14T05:35:41.028Z,14.02
2018-01-14T05:37:42.897Z,13.70
2018-01-14T05:39:44.034Z,11.63
2018-01-14T05:41:45.131Z,13.95
2018-01-14T05:43:46.212Z,12.90
2018-01-14T05:45:47.274Z,12.07
2018-01-14T05:47:48.325Z,14.38
2018-01-14T05:49:49.384Z,14.07
2018-01-14T05:51:50.506Z,14.02
2018-01-14T05:53:51.647Z,12.13
2018-01-14T05:55:53.879Z,11.45
2018-01-14T05:57:54.932Z,13.10
2018-01-14T05:59:56.040Z,14.43
2018-01-14T06:01:57.285Z,15.00
2018-01-14T06:03:58.336Z,17.15
2018-01-14T06:06:00.703Z,18.10
2018-01-14T06:08:02.493Z,16.10
2018-01-14T06:10:03.584Z,20.02
2018-01-14T06:12:04.749Z,20.35
2018-01-14T06:14:05.937Z,20.00
2018-01-14T06:16:07.338Z,12.37
2018-01-14T06:18:08.783Z,18.83
2018-01-14T06:20:09.898Z,20.97
2018-01-14T06:22:11.825Z,23.08
2018-01-14T06:24:14.821Z,20.65
2018-01-14T06:26:15.877Z,20.50
2018-01-14T06:28:17.944Z,21.20
2018-01-14T06:30:19.354Z,21.48
2018-01-14T06:32:20.439Z,23.05
2018-01-14T06:34:24.175Z,21.45
2018-01-14T06:36:25.252Z,21.95
2018-01-14T06:38:26.359Z,21.83
2018-01-14T06:40:27.880Z,23.40
2018-01-14T06:42:30.465Z,20.83
2018-01-14T06:44:31.861Z,21.10
2018-01-14T06:46:33.015Z,23.02
2018-01-14T06:48:34.048Z,22.85
2018-01-14T06:50:35.263Z,22.90
2018-01-14T06:52:37.065Z,21.92
2018-01-14T06:54:38.498Z,22.48
2018-01-14T06:56:39.591Z,22.87
2018-01-14T06:58:40.623Z,23.75
2018-01-14T07:00:41.788Z,24.50
2018-01-14T07:02:42.883Z,23.67
2018-01-14T07:04:43.983Z,22.15
2018-01-14T07:06:45.034Z,24.27
2018-01-14T07:08:46.299Z,24.35
2018-01-14T07:10:47.390Z,23.17
2018-01-14T07:12:49.273Z,25.98
2018-01-14T07:14:50.380Z,21.83
2018-01-14T07:16:51.471Z,24.15
2018-01-14T07:18:52.580Z,24.70
2018-01-14T07:20:53.945Z,23.52
2018-01-14T07:22:56.404Z,22.25
2018-01-14T07:24:57.607Z,24.33
2018-01-14T07:26:58.684Z,20.98
2018-01-14T07:29:00.065Z,23.58
2018-01-14T07:31:01.349Z,24.77
2018-01-14T07:33:02.422Z,26.37
2018-01-14T07:35:03.504Z,23.70
2018-01-14T07:37:04.874Z,25.20
2018-01-14T07:39:05.924Z,22.08
2018-01-14T07:41:06.977Z,25.00
2018-01-14T07:43:08.143Z,23.65
2018-01-14T07:45:09.178Z,25.50
2018-01-14T07:47:11.934Z,25.17
2018-01-14T07:49:16.075Z,25.67
2018-01-14T07:51:17.374Z,21.23
2018-01-14T07:53:18.465Z,27.62
2018-01-14T07:55:19.574Z,26.37
2018-01-14T07:57:20.576Z,23.92
2018-01-14T07:59:21.716Z,26.27
2018-01-14T08:01:22.761Z,24.73
2018-01-14T08:03:23.755Z,26.48
2018-01-14T08:05:25.679Z,25.40
2018-01-14T08:07:26.721Z,26.05
2018-01-14T08:09:27.706Z,26.33
2018-01-14T08:11:28.695Z,25.60
2018-01-14T08:13:29.680Z,24.87
2018-01-14T08:15:30.754Z,24.08
2018-01-14T08:17:31.857Z,28.30
2018-01-14T08:19:32.879Z,27.27
2018-01-14T08:21:34.247Z,27.05
2018-01-14T08:23:35.343Z,27.13
2018-01-14T08:25:40.432Z,30.25
2018-01-14T08:27:41.558Z,25.15
2018-01-14T08:29:42.624Z,27.65
2018-01-14T08:32:02.822Z,26.45
2018-01-14T08:34:04.409Z,26.97
2018-01-14T08:36:07.653Z,26.83
2018-01-14T08:38:08.693Z,28.60
2018-01-14T08:40:09.697Z,27.42
2018-01-14T08:42:11.099Z,23.95
2018-01-14T08:44:12.153Z,27.65
2018-01-14T08:46:13.219Z,26.70
2018-01-14T08:48:14.262Z,25.30
2018-01-14T08:50:15.295Z,26.55
2018-01-14T08:52:17.005Z,25.23
2018-01-14T08:54:18.088Z,29.95
2018-01-14T08:56:19.183Z,27.43
2018-01-14T08:58:21.997Z,26.40
2018-01-14T09:00:23.500Z,27.80
2018-01-14T09:02:24.576Z,29.80
2018-01-14T09:04:25.747Z,28.52
2018-01-14T09:06:26.819Z,27.60
2018-01-14T09:08:27.861Z,27.23
2018-01-14T09:10:28.837Z,20.43
2018-01-14T09:12:29.838Z,27.23
2018-01-14T09:14:31.580Z,22.97
2018-01-14T09:16:32.813Z,24.30
2018-01-14T09:18:33.862Z,23.70
2018-01-14T09:20:34.879Z,28.20
2018-01-14T09:22:36.622Z,26.47
2018-01-14T09:24:37.622Z,28.97
2018-01-14T09:26:38.669Z,26.43
2018-01-14T09:28:39.734Z,28.37
2018-01-14T09:30:52.907Z,25.30
2018-01-14T09:32:53.965Z,22.90
2018-01-14T09:34:55.073Z,28.47
2018-01-14T09:36:56.128Z,25.47
2018-01-14T09:38:57.567Z,27.97
2018-01-14T09:40:59.443Z,26.90
2018-01-14T09:43:01.036Z,29.17
2018-01-14T09:45:02.580Z,29.20
2018-01-14T09:47:03.652Z,27.73
2018-01-14T09:49:05.128Z,28.70
2018-01-14T09:51:09.414Z,28.90
2018-01-14T09:53:10.574Z,28.73
2018-01-14T09:55:11.645Z,27.27
2018-01-14T09:57:12.693Z,28.70
2018-01-14T09:59:14.495Z,25.70
2018-01-14T10:01:15.575Z,28.80
2018-01-14T10:03:16.692Z,29.17
2018-01-14T10:05:17.717Z,27.00
2018-01-14T10:07:18.696Z,29.93
2018-01-14T10:09:19.764Z,27.13
2018-01-14T10:11:20.696Z,30.23
2018-01-14T10:13:21.672Z,27.37
2018-01-14T10:15:22.697Z,29.40
2018-01-14T10:17:23.766Z,29.60
2018-01-14T10:19:24.804Z,30.30
2018-01-14T10:21:25.791Z,29.50
2018-01-14T10:23:26.826Z,27.27
2018-01-14T10:25:28.736Z,26.37
2018-01-14T10:27:29.847Z,29.27
2018-01-14T10:29:30.901Z,30.07
2018-01-14T10:31:31.902Z,29.60
2018-01-14T10:33:33.041Z,28.27
2018-01-14T10:35:34.122Z,28.17
2018-01-14T10:37:35.139Z,27.80
2018-01-14T10:39:36.709Z,28.07
2018-01-14T10:41:37.738Z,30.67
2018-01-14T10:43:39.061Z,31.43
2018-01-14T10:45:40.379Z,26.93
2018-01-14T10:47:42.705Z,30.60
2018-01-14T10:49:43.777Z,29.67
2018-01-14T10:51:44.879Z,28.60
2018-01-14T10:53:46.610Z,29.07
2018-01-14T10:55:48.712Z,30.97
2018-01-14T10:57:49.853Z,28.50
2018-01-14T10:59:52.951Z,28.33
2018-01-14T11:01:53.983Z,26.97
2018-01-14T11:04:03.045Z,31.03
2018-01-14T11:06:05.372Z,28.80
2018-01-14T11:13:09.178Z,29.17
2018-01-14T11:18:04.359Z,30.70
2018-01-14T11:20:06.959Z,29.27
2018-01-14T11:24:52.627Z,30.77
2018-01-14T11:27:16.194Z,29.80
2018-01-14T11:29:45.829Z,29.23
2018-01-14T11:36:51.631Z,28.27
2018-01-14T11:39:07.506Z,29.33
2018-01-14T11:41:09.205Z,28.47
2018-01-14T11:43:37.526Z,27.33
2018-01-14T11:45:41.004Z,28.47
2018-01-14T14:58:17.274Z,26.47
2018-01-14T15:02:38.550Z,29.47
2018-01-14T15:04:39.688Z,27.00
2018-01-14T15:54:20.680Z,19.63
2018-01-14T15:56:21.696Z,23.37
2018-01-14T16:00:51.484Z,29.10
2018-01-14T16:05:33.772Z,28.17
2018-01-14T16:09:51.529Z,28.67
2018-01-14T16:11:52.568Z,29.07
2018-01-14T16:16:33.951Z,29.43
2018-01-14T16:21:13.333Z,24.67
2018-01-14T16:25:59.941Z,29.83
2018-01-14T16:28:20.850Z,29.13
2018-01-14T16:30:22.071Z,32.93
2018-01-14T16:32:23.606Z,31.13
2018-01-14T16:34:24.713Z,30.93
2018-01-14T16:36:26.562Z,32.10
2018-01-14T16:38:28.395Z,29.83
2018-01-14T16:40:29.462Z,31.43
2018-01-14T16:42:30.562Z,30.67
2018-01-14T16:44:31.614Z,30.23
2018-01-14T16:46:32.567Z,30.90
2018-01-14T16:48:33.605Z,29.67
2018-01-14T16:50:34.615Z,30.83
2018-01-14T16:52:35.798Z,27.57
2018-01-14T16:54:36.826Z,30.17
2018-01-14T16:56:37.934Z,26.67
2018-01-14T16:58:38.987Z,28.90
2018-01-14T17:00:40.191Z,30.40
2018-01-14T17:02:42.144Z,31.50
2018-01-14T17:04:43.282Z,30.73
2018-01-14T17:06:44.296Z,29.30
2018-01-14T17:08:45.409Z,28.37
2018-01-14T17:10:46.567Z,29.40
2018-01-14T17:12:48.747Z,29.40
2018-01-14T17:14:49.863Z,30.43
2018-01-14T17:16:50.783Z,32.30
2018-01-14T17:18:51.759Z,30.13
2018-01-14T17:20:52.942Z,27.17
2018-01-14T17:22:54.021Z,32.57
2018-01-14T17:24:55.263Z,27.10
2018-01-14T17:26:56.938Z,29.87
2018-01-14T17:28:57.963Z,29.80
2018-01-14T17:30:58.939Z,30.83
2018-01-14T17:33:00.143Z,35.17
2018-01-14T17:35:01.209Z,31.80
2018-01-14T17:37:02.663Z,29.97
2018-01-14T17:39:03.644Z,31.37
2018-01-14T17:41:04.678Z,29.87
2018-01-14T17:43:05.644Z,29.60
2018-01-14T17:45:06.628Z,32.60
2018-01-14T17:47:07.574Z,30.20
2018-01-14T17:49:08.654Z,29.97
2018-01-14T17:51:09.733Z,28.50
2018-01-14T17:53:10.912Z,27.90
2018-01-14T17:55:11.955Z,31.97
2018-01-14T17:57:12.914Z,30.70
2018-01-14T17:59:14.000Z,32.27
2018-01-14T18:01:15.065Z,30.10
2018-01-14T18:03:16.040Z,30.17
2018-01-14T18:05:17.367Z,30.27
2018-01-14T18:07:18.439Z,32.10
2018-01-14T18:09:19.399Z,32.17
2018-01-14T18:11:20.729Z,30.27
2018-01-14T18:13:21.751Z,31.93
2018-01-14T18:15:22.732Z,31.70
2018-01-14T18:17:25.898Z,26.13
2018-01-14T18:19:27.755Z,31.80
2018-01-14T18:21:28.723Z,31.17
2018-01-14T18:23:29.775Z,31.73
2018-01-14T18:25:30.731Z,27.63
2018-01-14T18:27:31.766Z,33.20
2018-01-14T18:29:32.827Z,29.40
2018-01-14T18:31:33.851Z,30.63
2018-01-14T18:33:34.888Z,30.27
2018-01-14T18:35:36.657Z,31.50
2018-01-14T18:37:37.748Z,29.57
2018-01-14T18:39:38.757Z,31.80
2018-01-14T18:41:39.744Z,26.50
2018-01-14T18:43:40.860Z,32.27
2018-01-14T18:45:54.227Z,30.53
2018-01-14T18:47:55.171Z,30.60
2018-01-14T18:49:56.103Z,27.80
2018-01-14T18:51:57.140Z,31.60
2018-01-14T18:53:58.128Z,32.07
2018-01-14T18:55:59.139Z,28.50
2018-01-14T18:58:00.947Z,30.67
2018-01-14T19:00:02.040Z,29.50
2018-01-14T19:02:03.124Z,27.57
2018-01-14T19:04:04.163Z,27.00
2018-01-14T19:06:05.307Z,29.70
2018-01-14T19:08:06.260Z,31.17
2018-01-14T19:10:07.336Z,31.77
2018-01-14T19:12:08.398Z,31.33
2018-01-14T19:14:09.550Z,32.27
2018-01-14T19:16:10.544Z,28.67
2018-01-14T19:18:11.593Z,32.43
2018-01-14T19:20:13.389Z,32.97
2018-01-14T19:22:14.525Z,28.05
2018-01-14T19:24:17.328Z,29.90
2018-01-14T19:26:19.055Z,31.35
2018-01-14T19:28:20.033Z,30.45
2018-01-14T19:30:21.085Z,28.73
2018-01-14T19:32:23.878Z,30.62
2018-01-14T19:34:24.991Z,32.37
2018-01-14T19:36:27.726Z,30.37
2018-01-14T19:38:29.547Z,30.73
2018-01-14T19:40:38.137Z,32.70
2018-01-14T19:42:40.230Z,31.08
2018-01-14T19:44:41.540Z,28.10
2018-01-14T19:46:44.460Z,30.27
2018-01-14T19:49:05.637Z,30.15
2018-01-14T19:53:42.234Z,28.27
2018-01-14T19:55:49.546Z,29.73
2018-01-14T19:58:08.899Z,28.60
2018-01-14T20:00:11.050Z,29.42
2018-01-14T20:02:13.413Z,27.77
2018-01-14T20:07:08.551Z,29.98
2018-01-14T20:09:29.362Z,31.15
2018-01-14T20:11:59.018Z,30.70
2018-01-14T20:30:00.645Z,25.20
2018-01-14T20:35:11.354Z,27.52
2018-01-14T20:37:14.676Z,28.77
2018-01-14T20:42:00.179Z,29.12
2018-01-14T21:02:08.681Z,26.52
2018-01-14T21:04:09.929Z,26.80
2018-01-14T21:14:05.419Z,27.33
2018-01-14T21:16:08.846Z,27.10
2018-01-14T21:18:10.112Z,27.10
2018-01-14T21:20:11.496Z,28.85
2018-01-14T21:22:12.926Z,26.23
2018-01-14T21:26:55.306Z,28.20
2018-01-14T21:29:19.559Z,24.00
2018-01-14T21:33:49.190Z,24.67
2018-01-14T21:38:29.130Z,26.90
2018-01-14T21:43:19.720Z,24.55
2018-01-14T21:55:12.490Z,24.98
2018-01-14T22:02:17.124Z,23.83
2018-01-14T22:06:47.669Z,24.35
2018-01-14T22:08:48.806Z,25.95
2018-01-14T22:13:23.020Z,15.38
2018-01-14T22:15:51.119Z,24.65
2018-01-14T22:20:21.100Z,24.80
2018-01-14T22:22:33.110Z,18.58
2018-01-14T23:13:00.630Z,16.77
2018-01-14T23:15:12.668Z,21.67
2018-01-14T23:17:13.672Z,22.02
2018-01-14T23:19:14.747Z,23.97
2018-01-14T23:21:17.155Z,18.60
2018-01-14T23:23:18.305Z,18.70
2018-01-14T23:25:19.457Z,21.65
2018-01-14T23:27:20.714Z,22.80
2018-01-14T23:31:31.235Z,21.37
2018-01-14T23:33:33.786Z,16.17
2018-01-14T23:35:35.072Z,18.42
2018-01-14T23:37:36.081Z,17.55
2018-01-14T23:39:37.126Z,20.65
2018-01-14T23:41:39.192Z,19.90
2018-01-14T23:43:40.220Z,21.12
2018-01-14T23:45:42.111Z,18.60
2018-01-14T23:47:43.556Z,20.02
2018-01-14T23:49:45.051Z,19.15
2018-01-14T23:51:46.084Z,19.42
2018-01-14T23:53:47.415Z,17.58
2018-01-14T23:55:51.035Z,16.30
